sensor_id;sensor_type;location;lat;lon;timestamp;temperature;humidity
15105;DHT22;7653;48.994;9.212;2023-04-19T00:01:07;10.00;59.10
15105;DHT22;7653;48.994;9.212;2023-04-19T00:03:32;10.00;59.90
15105;DHT22;7653;48.994;9.212;2023-04-19T00:05:58;9.90;60.90
15105;DHT22;7653;48.994;9.212;2023-04-19T00:08:27;9.90;61.50
15105;DHT22;7653;48.994;9.212;2023-04-19T00:10:53;9.80;62.10
15105;DHT22;7653;48.994;9.212;2023-04-19T00:13:19;9.90;61.80
15105;DHT22;7653;48.994;9.212;2023-04-19T00:15:49;9.80;61.90
15105;DHT22;7653;48.994;9.212;2023-04-19T00:18:14;9.80;62.80
15105;DHT22;7653;48.994;9.212;2023-04-19T00:20:40;9.80;63.40
15105;DHT22;7653;48.994;9.212;2023-04-19T00:23:06;10.00;61.40
15105;DHT22;7653;48.994;9.212;2023-04-19T00:25:32;9.90;61.70
15105;DHT22;7653;48.994;9.212;2023-04-19T00:28:00;10.00;60.30
15105;DHT22;7653;48.994;9.212;2023-04-19T00:30:29;10.00;59.90
15105;DHT22;7653;48.994;9.212;2023-04-19T00:32:55;9.90;62.00
15105;DHT22;7653;48.994;9.212;2023-04-19T00:35:21;9.80;62.50
15105;DHT22;7653;48.994;9.212;2023-04-19T00:37:52;9.90;63.30
15105;DHT22;7653;48.994;9.212;2023-04-19T00:40:24;10.00;61.00
15105;DHT22;7653;48.994;9.212;2023-04-19T00:42:52;10.10;60.00
15105;DHT22;7653;48.994;9.212;2023-04-19T00:45:21;9.90;60.70
15105;DHT22;7653;48.994;9.212;2023-04-19T00:47:52;9.90;60.70
15105;DHT22;7653;48.994;9.212;2023-04-19T00:50:24;9.90;60.80
15105;DHT22;7653;48.994;9.212;2023-04-19T00:52:59;9.80;61.90
15105;DHT22;7653;48.994;9.212;2023-04-19T00:55:25;9.90;62.90
15105;DHT22;7653;48.994;9.212;2023-04-19T00:57:52;10.10;60.00
15105;DHT22;7653;48.994;9.212;2023-04-19T01:00:21;10.10;60.00
15105;DHT22;7653;48.994;9.212;2023-04-19T01:02:53;10.10;60.00
15105;DHT22;7653;48.994;9.212;2023-04-19T01:05:22;10.20;59.00
15105;DHT22;7653;48.994;9.212;2023-04-19T01:07:48;10.20;58.70
15105;DHT22;7653;48.994;9.212;2023-04-19T01:10:22;10.20;57.00
15105;DHT22;7653;48.994;9.212;2023-04-19T01:12:50;10.20;57.50
15105;DHT22;7653;48.994;9.212;2023-04-19T01:15:17;10.00;59.90
15105;DHT22;7653;48.994;9.212;2023-04-19T01:17:47;9.90;60.70
15105;DHT22;7653;48.994;9.212;2023-04-19T01:20:13;9.90;62.30
15105;DHT22;7653;48.994;9.212;2023-04-19T01:22:45;10.00;60.50
15105;DHT22;7653;48.994;9.212;2023-04-19T01:25:23;10.10;60.00
15105;DHT22;7653;48.994;9.212;2023-04-19T01:27:52;10.10;59.50
15105;DHT22;7653;48.994;9.212;2023-04-19T01:30:23;10.10;60.00
15105;DHT22;7653;48.994;9.212;2023-04-19T01:32:52;9.90;61.30
15105;DHT22;7653;48.994;9.212;2023-04-19T01:35:20;9.90;62.00
15105;DHT22;7653;48.994;9.212;2023-04-19T01:37:46;9.80;61.70
15105;DHT22;7653;48.994;9.212;2023-04-19T01:40:15;9.70;62.50
15105;DHT22;7653;48.994;9.212;2023-04-19T01:42:46;9.80;63.80
15105;DHT22;7653;48.994;9.212;2023-04-19T01:45:12;9.80;64.60
15105;DHT22;7653;48.994;9.212;2023-04-19T01:47:40;9.80;63.10
15105;DHT22;7653;48.994;9.212;2023-04-19T01:50:06;9.90;63.00
15105;DHT22;7653;48.994;9.212;2023-04-19T01:52:32;9.90;62.90
15105;DHT22;7653;48.994;9.212;2023-04-19T01:55:01;9.80;61.70
15105;DHT22;7653;48.994;9.212;2023-04-19T01:57:26;9.60;63.00
15105;DHT22;7653;48.994;9.212;2023-04-19T01:59:52;9.50;64.20
15105;DHT22;7653;48.994;9.212;2023-04-19T02:02:18;9.50;64.50
15105;DHT22;7653;48.994;9.212;2023-04-19T02:04:47;9.50;64.70
15105;DHT22;7653;48.994;9.212;2023-04-19T02:07:15;9.50;63.30
15105;DHT22;7653;48.994;9.212;2023-04-19T02:09:41;9.50;64.10
15105;DHT22;7653;48.994;9.212;2023-04-19T02:12:07;9.50;64.30
15105;DHT22;7653;48.994;9.212;2023-04-19T02:14:34;9.50;66.00
15105;DHT22;7653;48.994;9.212;2023-04-19T02:17:05;9.60;65.60
15105;DHT22;7653;48.994;9.212;2023-04-19T02:19:34;9.70;65.30
15105;DHT22;7653;48.994;9.212;2023-04-19T02:22:00;9.70;64.50
15105;DHT22;7653;48.994;9.212;2023-04-19T02:24:31;9.70;63.50
15105;DHT22;7653;48.994;9.212;2023-04-19T02:27:06;9.80;63.30
15105;DHT22;7653;48.994;9.212;2023-04-19T02:29:34;9.90;63.00
15105;DHT22;7653;48.994;9.212;2023-04-19T02:32:00;9.90;62.20
15105;DHT22;7653;48.994;9.212;2023-04-19T02:34:36;9.70;62.30
15105;DHT22;7653;48.994;9.212;2023-04-19T02:37:04;9.80;62.60
15105;DHT22;7653;48.994;9.212;2023-04-19T02:39:30;9.70;62.80
15105;DHT22;7653;48.994;9.212;2023-04-19T02:41:56;9.70;64.00
15105;DHT22;7653;48.994;9.212;2023-04-19T02:44:25;9.70;65.10
15105;DHT22;7653;48.994;9.212;2023-04-19T02:46:52;9.70;64.10
15105;DHT22;7653;48.994;9.212;2023-04-19T02:49:18;9.60;65.30
15105;DHT22;7653;48.994;9.212;2023-04-19T02:51:45;9.50;64.90
15105;DHT22;7653;48.994;9.212;2023-04-19T02:54:14;9.50;65.40
15105;DHT22;7653;48.994;9.212;2023-04-19T02:56:47;9.50;66.50
15105;DHT22;7653;48.994;9.212;2023-04-19T02:59:13;9.50;65.00
15105;DHT22;7653;48.994;9.212;2023-04-19T03:01:44;9.50;66.90
15105;DHT22;7653;48.994;9.212;2023-04-19T03:04:15;9.40;65.60
15105;DHT22;7653;48.994;9.212;2023-04-19T03:07:09;9.40;67.80
15105;DHT22;7653;48.994;9.212;2023-04-19T03:09:38;9.30;67.90
15105;DHT22;7653;48.994;9.212;2023-04-19T03:12:14;9.30;67.70
15105;DHT22;7653;48.994;9.212;2023-04-19T03:14:40;9.20;68.10
15105;DHT22;7653;48.994;9.212;2023-04-19T03:17:06;9.20;67.50
15105;DHT22;7653;48.994;9.212;2023-04-19T03:19:35;9.20;67.60
15105;DHT22;7653;48.994;9.212;2023-04-19T03:22:07;9.40;68.20
15105;DHT22;7653;48.994;9.212;2023-04-19T03:24:35;9.30;68.00
15105;DHT22;7653;48.994;9.212;2023-04-19T03:27:02;9.30;68.10
15105;DHT22;7653;48.994;9.212;2023-04-19T03:29:28;9.20;68.20
15105;DHT22;7653;48.994;9.212;2023-04-19T03:31:53;9.20;69.80
15105;DHT22;7653;48.994;9.212;2023-04-19T03:34:22;9.20;69.80
15105;DHT22;7653;48.994;9.212;2023-04-19T03:36:48;9.20;69.90
15105;DHT22;7653;48.994;9.212;2023-04-19T03:39:13;9.10;69.70
15105;DHT22;7653;48.994;9.212;2023-04-19T03:41:39;9.00;69.60
15105;DHT22;7653;48.994;9.212;2023-04-19T03:44:05;9.00;69.60
15105;DHT22;7653;48.994;9.212;2023-04-19T03:46:34;8.90;69.50
15105;DHT22;7653;48.994;9.212;2023-04-19T03:49:03;8.90;69.50
15105;DHT22;7653;48.994;9.212;2023-04-19T03:51:31;8.70;70.40
15105;DHT22;7653;48.994;9.212;2023-04-19T03:53:56;8.80;70.80
15105;DHT22;7653;48.994;9.212;2023-04-19T03:56:24;8.80;68.70
15105;DHT22;7653;48.994;9.212;2023-04-19T03:58:58;8.60;69.30
15105;DHT22;7653;48.994;9.212;2023-04-19T04:01:27;8.50;69.20
15105;DHT22;7653;48.994;9.212;2023-04-19T04:03:53;8.40;71.20
15105;DHT22;7653;48.994;9.212;2023-04-19T04:06:24;8.30;71.80
15105;DHT22;7653;48.994;9.212;2023-04-19T04:08:51;8.20;72.50
15105;DHT22;7653;48.994;9.212;2023-04-19T04:11:17;8.30;72.90
15105;DHT22;7653;48.994;9.212;2023-04-19T04:13:43;8.30;72.50
15105;DHT22;7653;48.994;9.212;2023-04-19T04:16:11;8.20;71.30
15105;DHT22;7653;48.994;9.212;2023-04-19T04:18:39;8.20;71.60
15105;DHT22;7653;48.994;9.212;2023-04-19T04:21:08;8.30;71.60
15105;DHT22;7653;48.994;9.212;2023-04-19T04:23:34;8.20;70.30
15105;DHT22;7653;48.994;9.212;2023-04-19T04:26:00;8.20;70.60
15105;DHT22;7653;48.994;9.212;2023-04-19T04:28:30;8.10;70.20
15105;DHT22;7653;48.994;9.212;2023-04-19T04:30:56;8.00;72.90
15105;DHT22;7653;48.994;9.212;2023-04-19T04:33:26;8.10;72.70
15105;DHT22;7653;48.994;9.212;2023-04-19T04:35:56;8.00;73.00
15105;DHT22;7653;48.994;9.212;2023-04-19T04:38:23;7.80;72.40
15105;DHT22;7653;48.994;9.212;2023-04-19T04:40:53;7.70;75.20
15105;DHT22;7653;48.994;9.212;2023-04-19T04:43:23;7.60;76.50
15105;DHT22;7653;48.994;9.212;2023-04-19T04:45:50;7.70;76.00
15105;DHT22;7653;48.994;9.212;2023-04-19T04:48:16;7.70;76.60
15105;DHT22;7653;48.994;9.212;2023-04-19T04:50:46;7.60;76.70
15105;DHT22;7653;48.994;9.212;2023-04-19T04:53:11;7.50;77.50
15105;DHT22;7653;48.994;9.212;2023-04-19T04:55:37;7.50;77.60
15105;DHT22;7653;48.994;9.212;2023-04-19T04:58:06;7.40;77.60
15105;DHT22;7653;48.994;9.212;2023-04-19T05:00:32;7.30;79.10
15105;DHT22;7653;48.994;9.212;2023-04-19T05:02:58;7.30;79.50
15105;DHT22;7653;48.994;9.212;2023-04-19T05:05:27;7.40;79.80
15105;DHT22;7653;48.994;9.212;2023-04-19T05:07:53;7.40;79.80
15105;DHT22;7653;48.994;9.212;2023-04-19T05:10:21;7.60;79.20
15105;DHT22;7653;48.994;9.212;2023-04-19T05:12:47;7.70;77.80
15105;DHT22;7653;48.994;9.212;2023-04-19T05:15:13;7.80;75.80
15105;DHT22;7653;48.994;9.212;2023-04-19T05:17:38;7.90;74.80
15105;DHT22;7653;48.994;9.212;2023-04-19T05:20:05;7.90;72.40
15105;DHT22;7653;48.994;9.212;2023-04-19T05:22:30;7.90;71.60
15105;DHT22;7653;48.994;9.212;2023-04-19T05:24:56;7.80;73.30
15105;DHT22;7653;48.994;9.212;2023-04-19T05:27:22;7.90;73.30
15105;DHT22;7653;48.994;9.212;2023-04-19T05:29:48;8.00;72.20
15105;DHT22;7653;48.994;9.212;2023-04-19T05:32:15;8.20;69.70
15105;DHT22;7653;48.994;9.212;2023-04-19T05:34:43;8.20;68.90
15105;DHT22;7653;48.994;9.212;2023-04-19T05:37:12;8.30;69.00
15105;DHT22;7653;48.994;9.212;2023-04-19T05:39:37;8.10;68.80
15105;DHT22;7653;48.994;9.212;2023-04-19T05:42:06;8.10;70.00
15105;DHT22;7653;48.994;9.212;2023-04-19T05:44:32;8.00;71.30
15105;DHT22;7653;48.994;9.212;2023-04-19T05:46:57;8.10;71.30
15105;DHT22;7653;48.994;9.212;2023-04-19T05:49:23;8.20;70.60
15105;DHT22;7653;48.994;9.212;2023-04-19T05:51:49;8.40;69.80
15105;DHT22;7653;48.994;9.212;2023-04-19T05:54:17;8.50;66.60
15105;DHT22;7653;48.994;9.212;2023-04-19T05:56:46;8.50;66.50
15105;DHT22;7653;48.994;9.212;2023-04-19T05:59:11;8.60;64.70
15105;DHT22;7653;48.994;9.212;2023-04-19T06:01:38;8.60;65.80
15105;DHT22;7653;48.994;9.212;2023-04-19T06:04:04;8.80;63.80
15105;DHT22;7653;48.994;9.212;2023-04-19T06:06:30;8.90;64.80
15105;DHT22;7653;48.994;9.212;2023-04-19T06:08:57;9.00;62.40
15105;DHT22;7653;48.994;9.212;2023-04-19T06:11:23;9.10;61.60
15105;DHT22;7653;48.994;9.212;2023-04-19T06:13:49;8.80;61.30
15105;DHT22;7653;48.994;9.212;2023-04-19T06:16:16;8.90;63.40
15105;DHT22;7653;48.994;9.212;2023-04-19T06:18:41;8.80;63.20
15105;DHT22;7653;48.994;9.212;2023-04-19T06:21:07;8.90;62.50
15105;DHT22;7653;48.994;9.212;2023-04-19T06:23:33;8.90;61.70
15105;DHT22;7653;48.994;9.212;2023-04-19T06:25:59;9.00;60.80
15105;DHT22;7653;48.994;9.212;2023-04-19T06:28:24;9.10;60.50
15105;DHT22;7653;48.994;9.212;2023-04-19T06:30:56;9.30;60.00
15105;DHT22;7653;48.994;9.212;2023-04-19T06:33:22;9.50;59.20
15105;DHT22;7653;48.994;9.212;2023-04-19T06:35:50;9.70;58.00
15105;DHT22;7653;48.994;9.212;2023-04-19T06:38:21;9.80;57.00
15105;DHT22;7653;48.994;9.212;2023-04-19T06:40:47;10.10;54.00
15105;DHT22;7653;48.994;9.212;2023-04-19T06:43:13;10.30;53.90
15105;DHT22;7653;48.994;9.212;2023-04-19T06:45:39;10.10;51.70
15105;DHT22;7653;48.994;9.212;2023-04-19T06:48:05;10.00;51.30
15105;DHT22;7653;48.994;9.212;2023-04-19T06:50:30;10.20;51.70
15105;DHT22;7653;48.994;9.212;2023-04-19T06:52:56;10.30;50.70
15105;DHT22;7653;48.994;9.212;2023-04-19T06:55:22;10.20;50.60
15105;DHT22;7653;48.994;9.212;2023-04-19T06:57:48;10.30;50.70
15105;DHT22;7653;48.994;9.212;2023-04-19T07:00:19;10.20;50.60
15105;DHT22;7653;48.994;9.212;2023-04-19T07:02:51;10.40;49.70
15105;DHT22;7653;48.994;9.212;2023-04-19T07:05:25;10.50;50.20
15105;DHT22;7653;48.994;9.212;2023-04-19T07:07:51;10.60;47.80
15105;DHT22;7653;48.994;9.212;2023-04-19T07:10:19;10.50;48.20
15105;DHT22;7653;48.994;9.212;2023-04-19T07:13:05;10.70;47.00
15105;DHT22;7653;48.994;9.212;2023-04-19T07:15:36;10.70;47.20
15105;DHT22;7653;48.994;9.212;2023-04-19T07:18:05;10.90;47.20
15105;DHT22;7653;48.994;9.212;2023-04-19T07:20:31;11.20;45.40
15105;DHT22;7653;48.994;9.212;2023-04-19T07:23:02;11.30;46.40
15105;DHT22;7653;48.994;9.212;2023-04-19T07:25:33;11.30;42.10
15105;DHT22;7653;48.994;9.212;2023-04-19T07:27:59;10.90;43.80
15105;DHT22;7653;48.994;9.212;2023-04-19T07:30:25;11.20;42.30
15105;DHT22;7653;48.994;9.212;2023-04-19T07:32:51;11.40;41.90
15105;DHT22;7653;48.994;9.212;2023-04-19T07:35:37;11.50;42.00
15105;DHT22;7653;48.994;9.212;2023-04-19T07:38:06;11.50;42.10
15105;DHT22;7653;48.994;9.212;2023-04-19T07:40:35;11.50;42.20
15105;DHT22;7653;48.994;9.212;2023-04-19T07:43:07;11.20;45.30
15105;DHT22;7653;48.994;9.212;2023-04-19T07:45:33;11.10;46.90
15105;DHT22;7653;48.994;9.212;2023-04-19T07:47:58;10.80;49.60
15105;DHT22;7653;48.994;9.212;2023-04-19T07:50:24;10.90;51.20
15105;DHT22;7653;48.994;9.212;2023-04-19T07:52:51;11.10;47.60
15105;DHT22;7653;48.994;9.212;2023-04-19T07:55:20;11.10;47.10
15105;DHT22;7653;48.994;9.212;2023-04-19T07:57:49;11.00;48.10
15105;DHT22;7653;48.994;9.212;2023-04-19T08:00:31;11.10;48.70
15105;DHT22;7653;48.994;9.212;2023-04-19T08:03:33;11.30;46.20
15105;DHT22;7653;48.994;9.212;2023-04-19T08:06:06;11.30;47.90
15105;DHT22;7653;48.994;9.212;2023-04-19T08:08:33;11.10;51.00
15105;DHT22;7653;48.994;9.212;2023-04-19T08:10:59;11.00;49.10
15105;DHT22;7653;48.994;9.212;2023-04-19T08:16:39;11.10;52.10
15105;DHT22;7653;48.994;9.212;2023-04-19T08:19:04;10.90;51.20
15105;DHT22;7653;48.994;9.212;2023-04-19T08:21:30;10.80;51.10
15105;DHT22;7653;48.994;9.212;2023-04-19T08:23:56;10.60;52.20
15105;DHT22;7653;48.994;9.212;2023-04-19T08:26:21;10.50;53.00
15105;DHT22;7653;48.994;9.212;2023-04-19T08:28:47;10.50;53.10
15105;DHT22;7653;48.994;9.212;2023-04-19T08:31:20;10.90;53.80
15105;DHT22;7653;48.994;9.212;2023-04-19T08:33:46;11.10;50.80
15105;DHT22;7653;48.994;9.212;2023-04-19T08:36:12;11.00;49.60
15105;DHT22;7653;48.994;9.212;2023-04-19T08:38:38;11.10;48.40
15105;DHT22;7653;48.994;9.212;2023-04-19T08:41:04;11.40;49.00
15105;DHT22;7653;48.994;9.212;2023-04-19T08:43:30;11.70;47.10
15105;DHT22;7653;48.994;9.212;2023-04-19T08:46:00;11.90;43.70
15105;DHT22;7653;48.994;9.212;2023-04-19T08:48:28;11.60;43.90
15105;DHT22;7653;48.994;9.212;2023-04-19T08:50:55;12.00;43.80
15105;DHT22;7653;48.994;9.212;2023-04-19T08:53:22;12.00;42.50
15105;DHT22;7653;48.994;9.212;2023-04-19T08:55:48;12.00;42.40
15105;DHT22;7653;48.994;9.212;2023-04-19T08:58:14;12.20;42.00
15105;DHT22;7653;48.994;9.212;2023-04-19T09:00:40;12.00;41.80
15105;DHT22;7653;48.994;9.212;2023-04-19T09:03:07;12.40;37.80
15105;DHT22;7653;48.994;9.212;2023-04-19T09:05:35;12.40;38.80
15105;DHT22;7653;48.994;9.212;2023-04-19T09:08:27;12.40;37.20
15105;DHT22;7653;48.994;9.212;2023-04-19T09:11:02;12.70;38.90
15105;DHT22;7653;48.994;9.212;2023-04-19T09:13:28;12.70;36.40
15105;DHT22;7653;48.994;9.212;2023-04-19T09:15:55;12.50;36.60
15105;DHT22;7653;48.994;9.212;2023-04-19T09:18:26;12.40;37.20
15105;DHT22;7653;48.994;9.212;2023-04-19T09:20:52;13.00;37.00
15105;DHT22;7653;48.994;9.212;2023-04-19T09:23:26;13.20;37.70
15105;DHT22;7653;48.994;9.212;2023-04-19T09:25:58;13.70;35.20
15105;DHT22;7653;48.994;9.212;2023-04-19T09:28:42;13.20;34.60
15105;DHT22;7653;48.994;9.212;2023-04-19T09:31:33;12.80;37.50
15105;DHT22;7653;48.994;9.212;2023-04-19T09:34:15;13.00;37.00
15105;DHT22;7653;48.994;9.212;2023-04-19T09:36:44;12.70;37.00
15105;DHT22;7653;48.994;9.212;2023-04-19T09:39:11;12.50;37.90
15105;DHT22;7653;48.994;9.212;2023-04-19T09:41:59;12.40;39.80
15105;DHT22;7653;48.994;9.212;2023-04-19T09:44:37;12.60;39.60
15105;DHT22;7653;48.994;9.212;2023-04-19T09:47:25;12.80;39.90
15105;DHT22;7653;48.994;9.212;2023-04-19T09:52:32;12.60;39.70
15105;DHT22;7653;48.994;9.212;2023-04-19T09:55:04;12.90;40.90
15105;DHT22;7653;48.994;9.212;2023-04-19T09:57:31;12.90;38.90
15105;DHT22;7653;48.994;9.212;2023-04-19T10:00:00;12.80;39.60
15105;DHT22;7653;48.994;9.212;2023-04-19T10:02:33;13.00;39.30
15105;DHT22;7653;48.994;9.212;2023-04-19T10:05:02;13.10;39.20
15105;DHT22;7653;48.994;9.212;2023-04-19T10:07:30;13.30;39.60
15105;DHT22;7653;48.994;9.212;2023-04-19T10:09:57;13.40;38.80
15105;DHT22;7653;48.994;9.212;2023-04-19T10:12:30;13.20;38.60
15105;DHT22;7653;48.994;9.212;2023-04-19T10:14:57;13.10;40.60
15105;DHT22;7653;48.994;9.212;2023-04-19T10:17:29;13.10;39.20
15105;DHT22;7653;48.994;9.212;2023-04-19T10:20:05;12.90;39.20
15105;DHT22;7653;48.994;9.212;2023-04-19T10:22:34;12.90;39.80
15105;DHT22;7653;48.994;9.212;2023-04-19T10:25:13;12.80;40.10
15105;DHT22;7653;48.994;9.212;2023-04-19T10:27:41;12.30;41.80
15105;DHT22;7653;48.994;9.212;2023-04-19T10:30:26;12.20;42.30
15105;DHT22;7653;48.994;9.212;2023-04-19T10:33:05;12.10;43.10
15105;DHT22;7653;48.994;9.212;2023-04-19T10:35:43;12.00;43.70
15105;DHT22;7653;48.994;9.212;2023-04-19T10:38:12;12.00;42.80
15105;DHT22;7653;48.994;9.212;2023-04-19T10:49:06;11.70;46.50
15105;DHT22;7653;48.994;9.212;2023-04-19T10:51:46;11.60;47.10
15105;DHT22;7653;48.994;9.212;2023-04-19T10:54:40;11.60;48.70
15105;DHT22;7653;48.994;9.212;2023-04-19T10:57:12;11.40;48.60
15105;DHT22;7653;48.994;9.212;2023-04-19T10:59:38;11.40;51.70
15105;DHT22;7653;48.994;9.212;2023-04-19T11:05:23;11.30;53.20
15105;DHT22;7653;48.994;9.212;2023-04-19T11:07:51;11.40;52.20
15105;DHT22;7653;48.994;9.212;2023-04-19T11:13:08;11.40;55.20
15105;DHT22;7653;48.994;9.212;2023-04-19T11:15:41;11.40;55.80
15105;DHT22;7653;48.994;9.212;2023-04-19T11:18:30;11.20;55.00
15105;DHT22;7653;48.994;9.212;2023-04-19T11:20:59;11.30;56.80
15105;DHT22;7653;48.994;9.212;2023-04-19T11:23:28;11.30;58.10
15105;DHT22;7653;48.994;9.212;2023-04-19T11:25:57;11.30;56.80
15105;DHT22;7653;48.994;9.212;2023-04-19T11:28:23;11.30;56.80
15105;DHT22;7653;48.994;9.212;2023-04-19T11:30:57;11.10;58.70
15105;DHT22;7653;48.994;9.212;2023-04-19T11:33:22;10.90;57.50
15105;DHT22;7653;48.994;9.212;2023-04-19T11:35:50;10.80;60.60
15105;DHT22;7653;48.994;9.212;2023-04-19T11:38:15;10.70;58.70
15105;DHT22;7653;48.994;9.212;2023-04-19T11:40:41;10.60;58.10
15105;DHT22;7653;48.994;9.212;2023-04-19T11:43:07;10.70;57.30
15105;DHT22;7653;48.994;9.212;2023-04-19T11:45:34;10.80;55.90
15105;DHT22;7653;48.994;9.212;2023-04-19T11:48:03;10.70;56.20
15105;DHT22;7653;48.994;9.212;2023-04-19T11:52:58;10.60;54.30
15105;DHT22;7653;48.994;9.212;2023-04-19T11:55:24;10.70;55.00
15105;DHT22;7653;48.994;9.212;2023-04-19T11:57:51;10.70;54.60
15105;DHT22;7653;48.994;9.212;2023-04-19T12:00:26;10.70;51.00
15105;DHT22;7653;48.994;9.212;2023-04-19T12:02:53;10.80;51.20
15105;DHT22;7653;48.994;9.212;2023-04-19T12:05:19;10.80;51.10
15105;DHT22;7653;48.994;9.212;2023-04-19T12:08:05;10.70;49.30
15105;DHT22;7653;48.994;9.212;2023-04-19T12:10:33;10.60;50.90
15105;DHT22;7653;48.994;9.212;2023-04-19T12:13:00;10.80;49.40
15105;DHT22;7653;48.994;9.212;2023-04-19T12:15:45;10.80;50.00
15105;DHT22;7653;48.994;9.212;2023-04-19T12:18:16;10.60;48.70
15105;DHT22;7653;48.994;9.212;2023-04-19T12:20:48;10.70;47.50
15105;DHT22;7653;48.994;9.212;2023-04-19T12:23:14;10.70;48.60
15105;DHT22;7653;48.994;9.212;2023-04-19T12:25:41;10.80;49.00
15105;DHT22;7653;48.994;9.212;2023-04-19T12:28:08;10.90;48.80
15105;DHT22;7653;48.994;9.212;2023-04-19T12:30:40;10.80;48.80
15105;DHT22;7653;48.994;9.212;2023-04-19T12:33:12;10.90;48.20
15105;DHT22;7653;48.994;9.212;2023-04-19T12:35:45;10.90;50.00
15105;DHT22;7653;48.994;9.212;2023-04-19T12:38:12;10.90;48.70
15105;DHT22;7653;48.994;9.212;2023-04-19T12:40:40;10.90;48.30
15105;DHT22;7653;48.994;9.212;2023-04-19T12:43:06;10.90;48.40
15105;DHT22;7653;48.994;9.212;2023-04-19T12:45:33;10.80;50.30
15105;DHT22;7653;48.994;9.212;2023-04-19T12:47:58;10.90;49.00
15105;DHT22;7653;48.994;9.212;2023-04-19T12:50:24;10.90;48.50
15105;DHT22;7653;48.994;9.212;2023-04-19T12:52:50;11.10;48.00
15105;DHT22;7653;48.994;9.212;2023-04-19T12:55:18;11.00;46.80
15105;DHT22;7653;48.994;9.212;2023-04-19T12:57:44;11.20;46.70
15105;DHT22;7653;48.994;9.212;2023-04-19T13:00:10;11.20;46.80
15105;DHT22;7653;48.994;9.212;2023-04-19T13:02:37;11.30;43.80
15105;DHT22;7653;48.994;9.212;2023-04-19T13:05:05;11.40;43.50
15105;DHT22;7653;48.994;9.212;2023-04-19T13:07:31;11.40;41.90
15105;DHT22;7653;48.994;9.212;2023-04-19T13:10:00;11.50;42.00
15105;DHT22;7653;48.994;9.212;2023-04-19T13:12:32;11.60;43.30
15105;DHT22;7653;48.994;9.212;2023-04-19T13:15:00;12.00;41.80
15105;DHT22;7653;48.994;9.212;2023-04-19T13:17:29;11.90;39.70
15105;DHT22;7653;48.994;9.212;2023-04-19T13:19:55;12.00;39.30
15105;DHT22;7653;48.994;9.212;2023-04-19T13:22:34;12.30;39.00
15105;DHT22;7653;48.994;9.212;2023-04-19T13:25:00;12.30;36.90
15105;DHT22;7653;48.994;9.212;2023-04-19T13:27:28;12.60;38.10
15105;DHT22;7653;48.994;9.212;2023-04-19T13:29:59;12.80;37.20
15105;DHT22;7653;48.994;9.212;2023-04-19T13:32:25;12.90;35.60
15105;DHT22;7653;48.994;9.212;2023-04-19T13:34:54;12.90;33.40
15105;DHT22;7653;48.994;9.212;2023-04-19T13:37:20;12.80;35.00
15105;DHT22;7653;48.994;9.212;2023-04-19T13:39:46;13.20;33.50
15105;DHT22;7653;48.994;9.212;2023-04-19T13:42:14;14.10;31.00
15105;DHT22;7653;48.994;9.212;2023-04-19T13:44:43;13.80;29.40
15105;DHT22;7653;48.994;9.212;2023-04-19T13:47:09;13.70;31.30
15105;DHT22;7653;48.994;9.212;2023-04-19T13:49:38;13.60;33.80
15105;DHT22;7653;48.994;9.212;2023-04-19T13:52:08;13.70;30.60
15105;DHT22;7653;48.994;9.212;2023-04-19T13:54:34;13.70;30.20
15105;DHT22;7653;48.994;9.212;2023-04-19T13:57:00;13.50;29.40
15105;DHT22;7653;48.994;9.212;2023-04-19T13:59:25;13.20;32.00
15105;DHT22;7653;48.994;9.212;2023-04-19T14:01:51;13.00;32.30
15105;DHT22;7653;48.994;9.212;2023-04-19T14:04:20;13.20;33.50
15105;DHT22;7653;48.994;9.212;2023-04-19T14:06:46;13.50;31.50
15105;DHT22;7653;48.994;9.212;2023-04-19T14:09:15;13.60;30.50
15105;DHT22;7653;48.994;9.212;2023-04-19T14:11:58;13.50;31.00
15105;DHT22;7653;48.994;9.212;2023-04-19T14:14:42;13.30;30.60
15105;DHT22;7653;48.994;9.212;2023-04-19T14:17:11;12.90;31.20
15105;DHT22;7653;48.994;9.212;2023-04-19T14:19:37;13.20;31.70
15105;DHT22;7653;48.994;9.212;2023-04-19T14:22:02;13.40;29.30
15105;DHT22;7653;48.994;9.212;2023-04-19T14:24:28;13.60;27.10
15105;DHT22;7653;48.994;9.212;2023-04-19T14:27:02;13.50;28.60
15105;DHT22;7653;48.994;9.212;2023-04-19T14:29:36;13.20;25.90
15105;DHT22;7653;48.994;9.212;2023-04-19T14:32:05;13.10;26.00
15105;DHT22;7653;48.994;9.212;2023-04-19T14:34:31;12.90;26.40
15105;DHT22;7653;48.994;9.212;2023-04-19T14:36:57;13.20;26.30
15105;DHT22;7653;48.994;9.212;2023-04-19T14:39:23;13.20;26.60
15105;DHT22;7653;48.994;9.212;2023-04-19T14:41:54;13.20;25.20
15105;DHT22;7653;48.994;9.212;2023-04-19T14:44:24;13.30;25.70
15105;DHT22;7653;48.994;9.212;2023-04-19T14:46:53;13.30;23.60
15105;DHT22;7653;48.994;9.212;2023-04-19T14:49:19;13.40;24.80
15105;DHT22;7653;48.994;9.212;2023-04-19T14:51:47;13.40;19.70
15105;DHT22;7653;48.994;9.212;2023-04-19T14:54:23;13.60;18.80
15105;DHT22;7653;48.994;9.212;2023-04-19T14:56:52;13.30;18.30
15105;DHT22;7653;48.994;9.212;2023-04-19T14:59:18;12.90;19.30
15105;DHT22;7653;48.994;9.212;2023-04-19T15:01:43;12.90;20.50
15105;DHT22;7653;48.994;9.212;2023-04-19T15:04:09;12.90;19.80
15105;DHT22;7653;48.994;9.212;2023-04-19T15:06:35;12.80;20.70
15105;DHT22;7653;48.994;9.212;2023-04-19T15:09:01;12.70;20.30
15105;DHT22;7653;48.994;9.212;2023-04-19T15:11:30;12.70;17.60
15105;DHT22;7653;48.994;9.212;2023-04-19T15:13:59;12.70;16.10
15105;DHT22;7653;48.994;9.212;2023-04-19T15:16:27;12.80;16.20
15105;DHT22;7653;48.994;9.212;2023-04-19T15:18:56;12.70;16.10
15105;DHT22;7653;48.994;9.212;2023-04-19T15:21:22;13.50;15.80
15105;DHT22;7653;48.994;9.212;2023-04-19T15:23:48;14.40;14.00
15105;DHT22;7653;48.994;9.212;2023-04-19T15:26:14;14.80;13.20
15105;DHT22;7653;48.994;9.212;2023-04-19T15:28:44;15.70;12.60
15105;DHT22;7653;48.994;9.212;2023-04-19T15:31:10;15.80;9.70
15105;DHT22;7653;48.994;9.212;2023-04-19T15:33:36;15.10;12.30
15105;DHT22;7653;48.994;9.212;2023-04-19T15:36:05;15.00;9.10
15105;DHT22;7653;48.994;9.212;2023-04-19T15:38:31;15.20;7.60
15105;DHT22;7653;48.994;9.212;2023-04-19T15:40:59;14.90;7.60
15105;DHT22;7653;48.994;9.212;2023-04-19T15:43:26;14.70;6.20
15105;DHT22;7653;48.994;9.212;2023-04-19T15:45:52;14.60;5.70
15105;DHT22;7653;48.994;9.212;2023-04-19T15:48:17;14.60;7.00
15105;DHT22;7653;48.994;9.212;2023-04-19T15:50:45;14.90;7.00
15105;DHT22;7653;48.994;9.212;2023-04-19T15:53:11;14.60;6.40
15105;DHT22;7653;48.994;9.212;2023-04-19T15:55:39;14.20;6.30
15105;DHT22;7653;48.994;9.212;2023-04-19T15:58:10;14.40;6.40
15105;DHT22;7653;48.994;9.212;2023-04-19T16:00:36;14.40;5.30
15105;DHT22;7653;48.994;9.212;2023-04-19T16:03:08;14.40;6.30
15105;DHT22;7653;48.994;9.212;2023-04-19T16:05:40;14.20;5.60
15105;DHT22;7653;48.994;9.212;2023-04-19T16:08:09;14.20;4.30
15105;DHT22;7653;48.994;9.212;2023-04-19T16:10:36;14.30;5.40
15105;DHT22;7653;48.994;9.212;2023-04-19T16:13:03;14.40;5.90
15105;DHT22;7653;48.994;9.212;2023-04-19T16:15:32;14.70;4.60
15105;DHT22;7653;48.994;9.212;2023-04-19T16:18:00;14.50;4.50
15105;DHT22;7653;48.994;9.212;2023-04-19T16:20:29;14.60;5.10
15105;DHT22;7653;48.994;9.212;2023-04-19T16:22:54;14.60;2.80
15105;DHT22;7653;48.994;9.212;2023-04-19T16:25:24;14.60;4.40